• Join FlightAware (Why Join?)
  • Login
  • US Flag 
07:56AM EDT


 

Airport Tracker/Info


-or-


 

Live Flight TrackerFlight Track Log ✈ N317FL ✈ 05-May-2013 ✈ KSGR - KNEW

Flight Track Log - Related Links

Times and Time Zones

All times are in EDT time to prevent confusion due to time zone crossing. See the N317FL flight status page for this flight to view local times or setup timezone preferences in your user account.

Time Position Orientation Groundspeed Altitude Reporting Facility
EDT Latitude Longitude Course Direction KTS MPH feet Rate Location/Type
05:57PM 29.6372 -95.6674 287° West 148 170 1,500  Level FlightAware ADS-B
05:57PM 29.6375 -95.6699 278° West 153 176 1,600 720 Climbing FlightAware ADS-B
05:57PM 29.6377 -95.6738 273° West 159 183 1,600 1,080 Level FlightAware ADS-B
05:58PM 29.6379 -95.6836 271° West 171 197 1,900 1,200 Climbing FlightAware ADS-B
05:58PM 29.6382 -95.6871 276° West 175 201 1,900  Level FlightAware ADS-B
05:58PM 29.6388 -95.6902 283° West 178 205 1,900  Level FlightAware ADS-B
05:58PM 29.6399 -95.6932 293° West 179 206 1,900  Level FlightAware ADS-B
05:58PM 29.6413 -95.6962 298° West 178 205 1,900  Level FlightAware ADS-B
05:58PM 29.6456 -95.7042 302° West 179 206 1,900  Level FlightAware ADS-B
05:58PM 29.6476 -95.7070 309° West 179 206 1,900 840 Level FlightAware ADS-B
05:58PM 29.6498 -95.7091 320° Northwest 177 204 2,000 840 Climbing FlightAware ADS-B
05:58PM 29.6523 -95.7106 332° Northwest 171 197 2,000 840 Level FlightAware ADS-B
05:58PM 29.6549 -95.7115 343° North 168 193 2,100 1,680 Climbing FlightAware ADS-B
05:58PM 29.6579 -95.7118 355° North 171 197 2,200 1,680 Climbing FlightAware ADS-B
05:58PM 29.6608 -95.7112 10° North 176 203 2,300 2,220 Climbing FlightAware ADS-B
05:58PM 29.6643 -95.7095 23° Northeast 181 208 2,500 3,000 Climbing FlightAware ADS-B
05:59PM 29.6664 -95.7078 35° Northeast 184 212 2,700 3,420 Climbing FlightAware ADS-B
05:59PM 29.6691 -95.7053 39° Northeast 189 217 2,900 3,000 Climbing FlightAware ADS-B
05:59PM 29.6715 -95.7026 44° Northeast 192 221 3,100 3,000 Climbing FlightAware ADS-B
05:59PM 29.6741 -95.6988 52° Northeast 196 226 3,300 3,300 Climbing FlightAware ADS-B
05:59PM 29.6761 -95.6948 60° Northeast 200 230 3,600 3,000 Climbing FlightAware ADS-B
05:59PM 29.6831 -95.6803 61° Northeast 211 243 4,300 3,000 Climbing FlightAware ADS-B
05:59PM 29.6899 -95.6649 63° Northeast 217 250 5,100 3,300 Climbing FlightAware ADS-B
05:59PM 29.6913 -95.6610 68° East 220 253 5,300 3,420 Climbing FlightAware ADS-B
05:59PM 29.6921 -95.6574 76° East 222 255 5,500 3,420 Climbing FlightAware ADS-B
05:59PM 29.6926 -95.6536 81° East 228 262 5,700 3,960 Climbing FlightAware ADS-B
06:00PM 29.6928 -95.6490 87° East 231 266 5,900 3,960 Climbing FlightAware ADS-B
06:00PM 29.6927 -95.6310 90° East 238 274 6,900 3,960 Climbing FlightAware ADS-B
06:00PM 29.6931 -95.6111 89° East 242 278 7,900 4,020 Climbing FlightAware ADS-B
06:00PM 29.6935 -95.5947 88° East 244 281 8,800 3,720 Climbing FlightAware ADS-B
06:01PM 29.6941 -95.5738 88° East 254 292 9,700 2,580 Climbing FlightAware ADS-B
06:01PM 29.6956 -95.5278 88° East 298 343 10,800 2,760 Climbing FlightAware ADS-B
06:02PM 29.6968 -95.4772 88° East 308 354 12,600 3,540 Climbing FlightAware ADS-B
06:02PM 29.6980 -95.4276 88° East 307 353 14,500 3,180 Climbing FlightAware ADS-B
06:03PM 29.6993 -95.3761 88° East 328 377 15,800 2,640 Climbing FlightAware ADS-B
06:03PM 29.7006 -95.3229 88° East 338 389 17,200 2,820 Climbing FlightAware ADS-B
06:04PM 29.7019 -95.2674 88° East 345 397 18,700 2,940 Climbing FlightAware ADS-B
06:04PM 29.7033 -95.2102 88° East 351 404 20,200 2,520 Climbing FlightAware ADS-B
06:05PM 29.7047 -95.1524 88° East 364 419 21,300 2,040 Climbing FlightAware ADS-B
06:05PM 29.7061 -95.0917 88° East 377 434 22,300 1,980 Climbing FlightAware ADS-B
06:06PM 29.7075 -95.0289 89° East 386 444 23,400 1,980 Climbing FlightAware ADS-B
06:06PM 29.7089 -94.9648 89° East 394 453 24,400 1,920 Climbing FlightAware ADS-B
06:07PM 29.7103 -94.9009 89° East 401 461 25,400 1,980 Climbing FlightAware ADS-B
06:07PM 29.7116 -94.8349 89° East 407 468 26,400 2,040 Climbing FlightAware ADS-B
06:08PM 29.7130 -94.7681 89° East 413 475 27,500 1,980 Climbing FlightAware ADS-B
06:08PM 29.7143 -94.7008 89° East 419 482 28,500 1,920 Climbing FlightAware ADS-B
06:09PM 29.7156 -94.6330 89° East 425 489 29,500 1,980 Climbing FlightAware ADS-B
06:09PM 29.7169 -94.5644 89° East 430 495 30,500 1,980 Climbing FlightAware ADS-B
06:10PM 29.7182 -94.4919 89° East 433 498 31,600 1,980 Climbing FlightAware ADS-B
06:10PM 29.7195 -94.4223 89° East 436 502 32,600 1,980 Climbing FlightAware ADS-B
06:11PM 29.7206 -94.3588 89° East 438 504 33,500 1,860 Climbing FlightAware ADS-B
06:11PM 29.7196 -94.3320 92° East 441 507 33,800 1,980 Climbing FlightAware ADS-B
06:11PM 29.7115 -94.2600 97° East 442 509 34,900 2,040 Climbing FlightAware ADS-B
06:12PM 29.7038 -94.1904 97° East 438 504 35,900 1,620 Climbing FlightAware ADS-B
06:12PM 29.6960 -94.1201 97° East 444 511 36,600 1,080 Climbing FlightAware ADS-B
06:13PM 29.6884 -94.0509 97° East 454 522 37,000 360 Climbing FlightAware ADS-B
06:13PM 29.6865 -93.9758 92° East 470 541 37,000  Level FlightAware ADS-B
06:14PM 29.6857 -93.8931 91° East 483 556 37,000  Level FlightAware ADS-B
06:14PM 29.6849 -93.8141 91° East 490 564 37,000  Level FlightAware ADS-B
06:15PM 29.6841 -93.7331 91° East 494 568 37,000  Level FlightAware ADS-B
06:15PM 29.6831 -93.6509 91° East 497 572 37,000  Level FlightAware ADS-B
06:16PM 29.6822 -93.5699 91° East 500 575 37,000  Level FlightAware ADS-B
06:16PM 29.6813 -93.4895 91° East 495 570 37,000  Level FlightAware ADS-B
06:17PM 29.6803 -93.4103 91° East 488 562 37,000  Level FlightAware ADS-B
06:18PM 29.6790 -93.3106 91° East 481 554 37,000  Level FlightAware ADS-B
06:18PM 29.6779 -93.2301 91° East 475 547 37,000  Level FlightAware ADS-B
06:19PM 29.6768 -93.1512 91° East 472 543 37,000  Level FlightAware ADS-B
06:20PM 29.6749 -93.0253 91° East 470 541 37,000  Level FlightAware ADS-B
06:20PM 29.6735 -92.9358 91° East 469 540 37,000  Level FlightAware ADS-B
06:21PM 29.6723 -92.8432 91° East 469 540 37,000  Level FlightAware ADS-B
06:21PM 29.6755 -92.8074 84° East 462 532 37,000  Level FlightAware ADS-B
06:21PM 29.6807 -92.7807 77° East 457 526 37,000  Level FlightAware ADS-B
06:22PM 29.7001 -92.7050 74° East 457 526 37,000  Level FlightAware ADS-B
06:22PM 29.7175 -92.6331 74° East 457 526 37,000  Level FlightAware ADS-B
06:23PM 29.7361 -92.5561 74° East 459 528 37,000  Level FlightAware ADS-B
06:23PM 29.7548 -92.4790 74° East 459 528 37,000  Level FlightAware ADS-B
06:24PM 29.7732 -92.4034 74° East 460 529 37,000  Level FlightAware ADS-B
06:24PM 29.7914 -92.3284 74° East 461 531 37,000  Level FlightAware ADS-B
06:25PM 29.8090 -92.2558 74° East 461 531 37,000  Level FlightAware ADS-B
06:25PM 29.8265 -92.1833 74° East 460 529 37,000 -420 Level FlightAware ADS-B
06:26PM 29.8434 -92.1130 74° East 465 535 36,600 -1,140 Descending FlightAware ADS-B
06:26PM 29.8608 -92.0404 75° East 462 532 35,900 -1,500 Descending FlightAware ADS-B
06:27PM 29.8823 -91.9505 75° East 457 526 34,900 -2,100 Descending FlightAware ADS-B
06:28PM 29.9079 -91.8430 75° East 459 528 33,000 -2,580 Descending FlightAware ADS-B
06:28PM 29.9256 -91.7683 75° East 451 519 31,600 -2,700 Descending FlightAware ADS-B
06:29PM 29.9422 -91.6979 75° East 443 510 30,200 -2,880 Descending FlightAware ADS-B
06:29PM 29.9598 -91.6239 75° East 440 506 28,600 -3,060 Descending FlightAware ADS-B
06:30PM 29.9816 -91.5314 75° East 437 503 26,500 -3,000 Descending FlightAware ADS-B
06:31PM 29.9994 -91.4542 75° East 437 503 24,700 -3,000 Descending Houston Center
06:32PM 30.0350 -91.3008 75° East 421 484 21,000 -2,940 Descending Houston Center
06:33PM 30.0597 -91.1983 74° East 409 471 18,700 -2,700 Descending Houston Center
06:34PM 30.0881 -91.0800 75° East 388 447 15,900 -2,580 Descending Houston Center
06:35PM 30.1103 -90.9683 77° East 362 417 13,400 -1,440 Descending Houston Center
06:36PM 30.1142 -90.8614 88° East 337 388 12,900 -300 Descending Houston Center
06:37PM 30.1200 -90.7364 87° East 327 376 12,900 -480 Level Houston Center
06:38PM 30.1269 -90.6275 86° East 326 375 12,000 -1,500 Descending Houston Center
06:44PM 30.0420 -90.0810 86° East 237 273 2,000 -1,560 Descending FlightAware
06:44PM 30.0310 -90.0700 139° Southeast 203 234 2,000 -240 Level FlightAware
06:45PM 30.0180 -90.0650 162° South 157 181 1,900 -600 Descending FlightAware
06:45PM 30.0010 -90.0630 174° South 155 178 1,600 -720 Descending FlightAware
06:45PM 29.9994 -90.0633 101° East 146 168 1,600 -420 Level Houston Center
06:45PM 29.9920 -90.0560 146° Southeast 144 166 1,500 -480 Descending FlightAware
06:46PM 29.9910 -90.0490 99° East 133 153 1,400 -720 Descending FlightAware
06:46PM 29.9960 -90.0350 68° East 114 131 1,100 -900 Descending FlightAware
06:46PM 30.0040 -90.0310 23° Northeast 108 124 800 -840 Descending FlightAware
06:46PM 30.0006 -90.0328 88° East 159 183 900  Climbing Houston Center
06:47PM 30.0150 -90.0270 17° North 108 124 800 -840 Descending FlightAware
06:47PM 30.0297 -90.0308 North 103 119 200 -1,440 Descending Houston Center
06:49PM 30.0333 -90.0167 101° East  Level FlightAware Approximate
06:51PM 30.0333 -90.0167 101° East  Level FlightAware Approximate
06:56PM 30.0424 -90.0283 101° East  Level Estimated